Niagara District Airport
CYSN : now visible

Airfield :











YOU CAN JOIN US ON...

 
LOGIN :

Register | Disclaimer

   EN    FR    IT 

 









Legend :    VFR   Marginal VFR   IFR   Intensive IFR   Very Intensive IFR
Visi :
Ceiling :
>= 8 km
>= 3000ft
5 to 8 km
1000 to 3000 ft
1500m to 5 km
500 to 1000 ft
800 to 1500m
200 to 500 ft
< 800m
< 200 ft
Symbols :   Thunderstorms  Fog  Heavy snow  Heavy precipitations  Wind > 20 kt






- Airport Elevation : 321 ft
- IATA code : YCM


CYSN - Niagara District

CURRENT METAR :
  • 212100Z 30011G17KT 15SM FEW035 OVC064 03/M06 A2990 RMK SC1SC7 VIRGA NW-NE SLP131

EXPIRED METARs :
  • 212000Z 30009G16KT 15SM FEW030 BKN061 03/M06 A2991 RMK SC1SC6 SLP133
  • 211900Z 31011KT 15SM FEW035 BKN043 02/M06 A2991 RMK CF1SC6 SLP134

TAF TAF CYSN
Valid from the 21 at 20:00 until the 22 at 01:00 UTC


211941Z 2120/2201 33010KT P6SM SCT015 BKN040
TEMPO 2120/2201 5SM -SN BKN015 RMK NXT FCST WILL BE ISSUED AT 221245Z
CZYZ FIR / North America



MET'MAP, your aeronautical weather chart ! - Copyright ORBIFLY December 2007 - Disclaimer

ORBIFLY MET'MAP TEAM :

Programming & Development : Alexandra Zaïnal
Concept & original design : Baudouin d'Aumeries
Assistance for programming : Marc-Olivier Méhu
Technical & hardware support : Manuel Goepfert

Contact : metmap@orbifly.com




SOURCES & CREDITS :

   NOAA       Earth
Advisory